createdAt,value
2018-10-03T00:00:55.692Z,0.83
2018-10-03T00:03:24.870Z,0.70
2018-10-03T00:05:53.967Z,0.70
2018-10-03T00:08:22.368Z,0.80
2018-10-03T00:10:51.416Z,0.60
2018-10-03T00:13:20.333Z,0.70
2018-10-03T00:15:49.597Z,0.57
2018-10-03T00:18:18.198Z,0.90
2018-10-03T00:20:46.964Z,0.90
2018-10-03T00:23:15.835Z,0.90
2018-10-03T00:25:45.576Z,1.27
2018-10-03T00:28:14.740Z,1.20
2018-10-03T00:30:43.942Z,1.20
2018-10-03T00:33:13.221Z,0.90
2018-10-03T00:35:42.133Z,0.73
2018-10-03T00:38:11.246Z,0.60
2018-10-03T00:40:40.513Z,0.60
2018-10-03T00:43:10.840Z,0.70
2018-10-03T00:45:39.168Z,0.77
2018-10-03T00:48:08.649Z,0.80
2018-10-03T00:50:37.746Z,0.80
2018-10-03T00:53:07.289Z,0.60
2018-10-03T00:55:36.868Z,0.70
2018-10-03T00:58:05.708Z,0.80
2018-10-03T01:00:34.465Z,0.70
2018-10-03T01:03:03.729Z,0.67
2018-10-03T01:05:32.566Z,0.50
2018-10-03T01:08:01.872Z,0.70
2018-10-03T01:10:30.749Z,0.70
2018-10-03T01:12:59.734Z,0.60
2018-10-03T01:15:28.764Z,0.53
2018-10-03T01:17:57.545Z,0.67
2018-10-03T01:20:27.245Z,0.60
2018-10-03T01:22:56.129Z,0.70
2018-10-03T01:25:24.966Z,0.70
2018-10-03T01:27:53.953Z,0.60
2018-10-03T01:30:23.020Z,0.80
2018-10-03T01:32:51.968Z,0.60
2018-10-03T01:35:20.605Z,0.60
2018-10-03T01:37:49.319Z,0.70
2018-10-03T01:40:18.497Z,0.53
2018-10-03T01:42:47.433Z,0.67
2018-10-03T01:45:16.526Z,0.60
2018-10-03T01:47:45.832Z,0.80
2018-10-03T01:50:14.742Z,0.67
2018-10-03T01:52:43.425Z,0.53
2018-10-03T01:55:12.621Z,0.73
2018-10-03T01:57:42.200Z,0.80
2018-10-03T02:00:11.498Z,0.60
2018-10-03T02:02:40.109Z,0.70
2018-10-03T02:05:09.085Z,1.00
2018-10-03T02:07:38.384Z,0.60
2018-10-03T02:10:06.793Z,0.67
2018-10-03T02:12:35.965Z,1.00
2018-10-03T02:15:05.090Z,0.97
2018-10-03T02:17:34.268Z,0.70
2018-10-03T02:20:03.537Z,0.70
2018-10-03T02:22:32.111Z,0.80
2018-10-03T02:25:00.957Z,0.70
2018-10-03T02:27:30.677Z,0.80
2018-10-03T02:29:59.661Z,0.70
2018-10-03T02:32:28.296Z,0.93
2018-10-03T02:34:57.192Z,0.80
2018-10-03T02:37:26.433Z,0.87
2018-10-03T02:39:54.949Z,0.90
2018-10-03T02:42:23.869Z,0.80
2018-10-03T02:44:52.829Z,0.70
2018-10-03T02:47:22.142Z,0.90
2018-10-03T02:49:51.651Z,0.70
2018-10-03T02:52:21.205Z,1.13
2018-10-03T02:54:50.302Z,0.90
2018-10-03T02:57:19.424Z,0.77
2018-10-03T02:59:48.041Z,1.03
2018-10-03T03:02:17.157Z,2.43
2018-10-03T03:04:47.208Z,1.80
2018-10-03T03:07:16.269Z,2.40
2018-10-03T03:09:44.797Z,1.83
2018-10-03T03:12:14.015Z,1.40
2018-10-03T03:14:42.698Z,2.00
2018-10-03T03:17:11.833Z,2.03
2018-10-03T03:19:41.057Z,1.90
2018-10-03T03:22:10.368Z,1.80
2018-10-03T03:24:39.666Z,1.80
2018-10-03T03:27:08.561Z,2.17
2018-10-03T03:29:37.765Z,2.00
2018-10-03T03:32:06.153Z,1.77
2018-10-03T03:34:35.033Z,1.57
2018-10-03T03:37:04.158Z,2.60
2018-10-03T03:39:33.065Z,1.77
2018-10-03T03:42:02.182Z,2.10
2018-10-03T03:44:31.150Z,2.23
2018-10-03T03:47:00.446Z,2.10
2018-10-03T03:49:29.276Z,2.47
2018-10-03T03:51:57.814Z,1.53
2018-10-03T03:54:26.433Z,1.30
2018-10-03T03:56:55.336Z,1.30
2018-10-03T03:59:24.232Z,1.50
2018-10-03T04:01:53.485Z,1.10
2018-10-03T04:04:22.716Z,0.80
2018-10-03T04:06:52.005Z,0.90
2018-10-03T04:09:21.153Z,1.00
2018-10-03T04:11:50.395Z,0.90
2018-10-03T04:14:19.158Z,1.20
2018-10-03T04:16:48.261Z,1.10
2018-10-03T04:19:18.085Z,1.00
2018-10-03T04:21:47.073Z,1.03
2018-10-03T04:24:15.709Z,1.00
2018-10-03T04:26:45.020Z,1.00
2018-10-03T04:29:14.050Z,0.90
2018-10-03T04:31:43.787Z,1.10
2018-10-03T04:34:16.132Z,1.40
2018-10-03T04:36:45.640Z,1.20
2018-10-03T04:39:15.121Z,1.67
2018-10-03T04:41:44.856Z,1.30
2018-10-03T04:44:14.169Z,1.63
2018-10-03T04:46:42.705Z,1.93
2018-10-03T04:49:12.038Z,1.20
2018-10-03T04:51:40.857Z,1.60
2018-10-03T04:54:10.272Z,1.47
2018-10-03T04:56:39.805Z,1.27
2018-10-03T04:59:08.736Z,2.20
2018-10-03T05:01:38.100Z,1.83
2018-10-03T05:04:07.913Z,2.30
2018-10-03T05:06:36.990Z,1.97
2018-10-03T05:09:06.553Z,1.60
2018-10-03T05:11:35.906Z,1.67
2018-10-03T05:14:04.463Z,1.80
2018-10-03T05:16:33.228Z,2.27
2018-10-03T05:19:03.035Z,1.73
2018-10-03T05:21:31.645Z,1.90
2018-10-03T05:24:00.598Z,1.87
2018-10-03T05:26:29.849Z,2.33
2018-10-03T05:28:58.765Z,1.90
2018-10-03T05:31:27.694Z,2.40
2018-10-03T05:33:56.846Z,2.20
2018-10-03T05:36:29.715Z,2.13
2018-10-03T05:38:57.969Z,1.13
2018-10-03T05:41:26.640Z,1.27
2018-10-03T05:43:55.633Z,1.37
2018-10-03T05:46:24.836Z,1.50
2018-10-03T05:48:53.578Z,1.80
2018-10-03T05:51:22.493Z,1.93
2018-10-03T05:53:51.480Z,1.70
2018-10-03T05:56:20.718Z,1.00
2018-10-03T05:58:49.287Z,1.30
2018-10-03T06:01:18.216Z,2.20
2018-10-03T06:03:46.817Z,1.83
2018-10-03T06:06:15.794Z,2.00
2018-10-03T06:08:44.963Z,2.47
2018-10-03T06:11:13.992Z,1.73
2018-10-03T06:13:43.923Z,2.00
2018-10-03T12:49:51.780Z,0.70
2018-10-03T12:52:20.665Z,1.03
2018-10-03T12:54:49.322Z,0.90
2018-10-03T12:57:17.925Z,0.90
2018-10-03T12:59:46.720Z,1.00
2018-10-03T13:02:15.741Z,1.00
2018-10-03T13:04:44.417Z,1.00
2018-10-03T13:07:12.998Z,0.90
2018-10-03T13:09:41.525Z,0.80
2018-10-03T13:12:10.906Z,0.90
2018-10-03T13:14:39.903Z,0.97
2018-10-03T13:17:08.765Z,1.20
2018-10-03T13:19:38.252Z,1.10
2018-10-03T13:22:06.807Z,1.20
2018-10-03T13:24:35.799Z,1.07
2018-10-03T13:27:04.665Z,0.90
2018-10-03T13:29:33.887Z,1.10
2018-10-03T13:32:03.016Z,1.00
2018-10-03T13:34:31.294Z,0.83
2018-10-03T13:37:00.576Z,1.10
2018-10-03T13:39:29.018Z,0.80
2018-10-03T13:41:58.245Z,1.20
2018-10-03T13:44:27.159Z,1.10
2018-10-03T13:46:56.052Z,1.10
2018-10-03T13:49:25.529Z,0.97
2018-10-03T13:51:53.805Z,0.70
2018-10-03T13:54:22.253Z,0.93
2018-10-03T13:56:51.224Z,0.77
2018-10-03T13:59:20.277Z,0.77
2018-10-03T14:01:49.046Z,1.00
2018-10-03T14:04:17.944Z,0.80
2018-10-03T14:06:47.258Z,0.93
2018-10-03T14:09:16.419Z,0.93
2018-10-03T14:11:45.689Z,1.07
2018-10-03T14:14:14.377Z,1.00
2018-10-03T14:16:43.172Z,0.70
2018-10-03T14:19:11.807Z,0.90
2018-10-03T14:21:40.995Z,0.90
2018-10-03T14:24:09.849Z,0.87
2018-10-03T14:26:38.457Z,0.90
2018-10-03T14:29:07.753Z,1.10
2018-10-03T14:31:37.153Z,0.93
2018-10-03T14:34:06.152Z,1.13
2018-10-03T14:36:34.861Z,0.87
2018-10-03T14:39:04.693Z,0.70
2018-10-03T14:41:33.541Z,0.70
2018-10-03T14:44:02.687Z,0.63
2018-10-03T14:46:31.293Z,1.00
2018-10-03T14:49:00.653Z,1.03
2018-10-03T14:51:29.013Z,0.90
2018-10-03T14:53:57.763Z,0.60
2018-10-03T14:56:27.013Z,0.70
2018-10-03T14:58:55.833Z,0.80
2018-10-03T15:01:24.454Z,0.80
2018-10-03T15:03:53.503Z,0.60
2018-10-03T15:06:23.109Z,1.13
2018-10-03T15:08:52.308Z,0.90
2018-10-03T15:11:20.914Z,1.10
2018-10-03T15:13:49.532Z,1.00
2018-10-03T15:16:18.490Z,0.70
2018-10-03T15:18:47.388Z,0.83
2018-10-03T15:21:15.901Z,0.80
2018-10-03T15:23:44.497Z,0.60
2018-10-03T15:26:13.458Z,0.80
2018-10-03T15:28:42.445Z,1.00
2018-10-03T15:31:11.297Z,1.00
2018-10-03T15:33:39.837Z,0.90
2018-10-03T15:36:08.973Z,0.90
2018-10-03T15:38:37.873Z,1.03
2018-10-03T15:41:06.744Z,1.40
2018-10-03T15:43:35.681Z,1.10
2018-10-03T15:46:05.489Z,0.80
2018-10-03T15:48:35.003Z,1.10
2018-10-03T15:51:03.869Z,1.20
2018-10-03T15:53:32.549Z,0.90
2018-10-03T15:56:01.945Z,0.90
2018-10-03T15:58:31.075Z,1.00
2018-10-03T16:01:00.453Z,1.17
2018-10-03T16:03:29.381Z,1.07
2018-10-03T16:05:58.470Z,0.80
2018-10-03T16:08:27.522Z,1.57
2018-10-03T16:10:56.745Z,1.03
2018-10-03T16:13:25.971Z,1.10
2018-10-03T16:15:54.753Z,0.80
2018-10-03T16:18:23.977Z,1.00
2018-10-03T16:20:53.606Z,1.10
2018-10-03T16:23:22.265Z,0.90
2018-10-03T16:25:51.648Z,1.10
2018-10-03T16:28:20.545Z,1.20
2018-10-03T16:30:48.952Z,1.10
2018-10-03T16:33:18.783Z,1.17
2018-10-03T16:35:47.681Z,1.10
2018-10-03T16:38:16.533Z,1.53
2018-10-03T16:40:46.096Z,1.30
2018-10-03T16:43:14.809Z,1.30
2018-10-03T16:45:43.459Z,1.30
2018-10-03T16:48:12.325Z,1.57
2018-10-03T16:50:41.317Z,2.30
2018-10-03T16:53:10.043Z,1.90
2018-10-03T16:55:39.956Z,1.77
2018-10-03T16:58:09.061Z,1.80
2018-10-03T17:00:37.978Z,2.23
2018-10-03T17:03:07.595Z,1.60
2018-10-03T17:05:37.425Z,1.60
2018-10-03T17:08:06.895Z,1.37
2018-10-03T17:10:40.172Z,1.53
2018-10-03T17:13:09.591Z,1.63
2018-10-03T17:15:40.137Z,1.93
2018-10-03T17:18:09.478Z,2.57
2018-10-03T17:20:38.576Z,2.70
2018-10-03T17:23:08.123Z,1.80
2018-10-03T17:25:37.677Z,1.70
2018-10-03T17:28:08.178Z,2.30
2018-10-03T17:30:37.017Z,2.47
2018-10-03T17:33:06.766Z,2.47
2018-10-03T17:35:36.195Z,2.20
2018-10-03T17:38:05.915Z,2.27
2018-10-03T17:40:35.399Z,1.67
2018-10-03T17:43:04.983Z,1.93
2018-10-03T17:45:34.653Z,2.20
2018-10-03T17:48:04.505Z,2.63
2018-10-03T17:50:33.486Z,2.20
2018-10-03T17:53:03.896Z,2.87
2018-10-03T17:55:33.449Z,1.67
2018-10-03T17:58:03.738Z,1.70
2018-10-03T18:00:32.675Z,2.53
2018-10-03T18:03:02.438Z,1.60
2018-10-03T18:05:32.918Z,3.03
2018-10-03T18:08:02.538Z,4.37
2018-10-03T18:10:32.202Z,3.97
2018-10-03T18:13:02.285Z,4.50
2018-10-03T18:15:32.311Z,5.47
2018-10-03T18:18:02.815Z,4.83
2018-10-03T18:20:32.271Z,4.50
2018-10-03T18:23:01.978Z,4.90
2018-10-03T18:25:32.687Z,6.87
2018-10-03T18:28:02.274Z,6.13
2018-10-03T18:30:32.615Z,8.47
2018-10-03T18:33:01.934Z,6.97
2018-10-03T18:35:31.505Z,7.97
2018-10-03T18:38:01.424Z,7.57
2018-10-03T18:40:35.694Z,7.10
2018-10-03T18:43:05.777Z,5.77
2018-10-03T18:45:35.984Z,6.80
2018-10-03T18:48:05.241Z,6.47
2018-10-03T18:50:35.947Z,5.37
2018-10-03T18:53:05.360Z,4.57
2018-10-03T18:55:34.727Z,4.93
2018-10-03T18:58:04.061Z,4.87
2018-10-03T19:00:33.847Z,3.97
2018-10-03T19:03:03.245Z,3.93
2018-10-03T19:05:33.565Z,3.17
2018-10-03T19:08:03.540Z,3.10
2018-10-03T19:10:33.447Z,3.27
2018-10-03T19:13:03.588Z,2.60
2018-10-03T19:15:32.940Z,2.70
2018-10-03T19:18:02.214Z,3.30
2018-10-03T19:20:32.398Z,3.07
2018-10-03T19:23:02.420Z,3.17
2018-10-03T19:25:32.270Z,2.60
2018-10-03T19:28:03.044Z,2.80
2018-10-03T19:30:33.085Z,2.97
2018-10-03T19:33:03.612Z,3.40
2018-10-03T19:35:32.938Z,3.23
2018-10-03T19:38:02.464Z,3.70
2018-10-03T19:40:32.433Z,3.50
2018-10-03T19:43:02.313Z,3.50
2018-10-03T19:45:31.538Z,2.77
2018-10-03T19:48:00.842Z,2.97
2018-10-03T19:50:30.740Z,3.03
2018-10-03T19:53:01.073Z,3.10
2018-10-03T19:55:31.012Z,3.47
2018-10-03T19:58:00.803Z,3.33
2018-10-03T20:00:30.398Z,3.80
2018-10-03T20:03:00.013Z,3.97
2018-10-03T20:05:29.273Z,3.83
2018-10-03T20:07:59.240Z,3.90
2018-10-03T20:10:29.510Z,4.00
2018-10-03T20:12:59.265Z,4.97
2018-10-03T20:15:28.882Z,4.90
2018-10-03T20:17:58.621Z,4.73
2018-10-03T20:20:28.559Z,4.53
2018-10-03T20:22:58.398Z,5.00
2018-10-03T20:25:27.929Z,4.83
2018-10-03T20:27:57.687Z,4.67
2018-10-03T20:30:27.467Z,4.50
2018-10-03T20:32:57.363Z,4.93
2018-10-03T20:35:26.453Z,5.27
2018-10-03T20:37:55.498Z,4.80
2018-10-03T20:40:24.859Z,4.33
2018-10-03T20:42:53.405Z,4.67
2018-10-03T20:45:22.330Z,4.20
2018-10-03T20:47:52.100Z,4.53
2018-10-03T20:50:22.267Z,4.67
2018-10-03T20:52:51.557Z,5.17
2018-10-03T20:55:20.486Z,4.80
2018-10-03T20:57:49.670Z,4.97
2018-10-03T21:00:19.318Z,4.03
2018-10-03T21:02:48.383Z,4.37
2018-10-03T21:05:17.341Z,4.13
2018-10-03T21:07:46.083Z,3.70
2018-10-03T21:10:15.253Z,4.03
2018-10-03T21:12:44.422Z,3.57
2018-10-03T21:15:13.382Z,4.57
2018-10-03T21:17:42.300Z,4.17
2018-10-03T21:20:11.845Z,3.73
2018-10-03T21:22:40.673Z,4.53
2018-10-03T21:25:09.229Z,3.77
2018-10-03T21:27:38.449Z,3.93
2018-10-03T21:30:07.653Z,3.73
2018-10-03T21:32:36.932Z,3.73
2018-10-03T21:35:06.588Z,3.80
2018-10-03T21:37:35.367Z,3.60
2018-10-03T21:40:04.902Z,3.70
2018-10-03T21:42:34.005Z,3.60
2018-10-03T21:45:02.657Z,3.50
2018-10-03T21:47:31.561Z,3.00
2018-10-03T21:50:00.733Z,3.13
2018-10-03T21:52:29.361Z,3.10
2018-10-03T21:54:58.521Z,3.20
2018-10-03T21:57:27.886Z,3.10
2018-10-03T21:59:57.471Z,3.03
2018-10-03T22:02:26.164Z,3.33
2018-10-03T22:04:55.041Z,3.70
2018-10-03T22:07:24.493Z,3.03
2018-10-03T22:09:54.180Z,3.47
2018-10-03T22:12:23.259Z,3.20
2018-10-03T22:14:52.249Z,2.90
2018-10-03T22:17:24.154Z,3.03
2018-10-03T22:19:54.615Z,2.87
2018-10-03T22:22:24.703Z,3.20
2018-10-03T22:24:54.187Z,3.20
2018-10-03T22:27:24.559Z,3.23
2018-10-03T22:29:53.329Z,3.43
2018-10-03T22:32:22.338Z,3.20
2018-10-03T22:34:51.645Z,3.70
2018-10-03T22:37:20.944Z,3.80
2018-10-03T22:39:49.880Z,3.73
2018-10-03T22:42:18.781Z,3.23
2018-10-03T22:44:47.976Z,3.47
2018-10-03T22:47:16.578Z,3.23
2018-10-03T22:49:45.752Z,3.40
2018-10-03T22:52:14.677Z,3.20
2018-10-03T22:54:43.877Z,3.30
2018-10-03T22:57:13.177Z,3.17
2018-10-03T22:59:42.852Z,3.40
2018-10-03T23:02:12.132Z,3.87
2018-10-03T23:04:41.029Z,3.37
2018-10-03T23:07:10.412Z,3.03
2018-10-03T23:09:40.237Z,3.57
2018-10-03T23:12:09.129Z,3.47
2018-10-03T23:14:38.914Z,3.07
2018-10-03T23:17:07.964Z,3.60
2018-10-03T23:19:36.837Z,3.97
2018-10-03T23:22:06.017Z,3.30
2018-10-03T23:24:34.894Z,3.47
2018-10-03T23:27:04.222Z,4.00
2018-10-03T23:29:33.429Z,2.97
2018-10-03T23:32:02.306Z,3.27
2018-10-03T23:34:31.241Z,2.97
2018-10-03T23:37:00.425Z,2.90
2018-10-03T23:39:29.756Z,2.37
2018-10-03T23:41:58.364Z,2.60
2018-10-03T23:44:27.409Z,2.40
2018-10-03T23:46:56.869Z,2.40
2018-10-03T23:49:26.733Z,2.03
2018-10-03T23:51:55.237Z,1.83
2018-10-03T23:54:24.271Z,2.00
2018-10-03T23:56:53.238Z,1.67
2018-10-03T23:59:23.062Z,1.63
